Coffee Creek, Montana
Current Conditions -  °F | °C
As of 2:54 PM on Friday 19 Dec 2014 (Local Time) from KLWT Reporting Station
Clear Clear  
Wind Chill: 37°   Ceiling: Unl
Heat Index: 40°   Visibility: 10mi
Dew Point: 27°   Wind: 5mph
Humidity: 60%   Direction: 110°ESE
Pressure: 29.81"   Gusts: NA
Location:  47.34°N, 110.08°W
Report Text: KLWT 192154Z AUTO 11004KT 10SM CLR 04/M03 A2981 RMK AO2 SLP114 T00441028
Loading
Personal Weather Stations






























Interactive Weather Map New forecast layout! Learn more

10-Day Weather Forecast

Advertisements
Track Severe Weather on mobile